Terminal Aerodrome Forecast
Issued by NWS

Home | Current Version | Previous Version | Text Only | Print | Product List | Glossary On
Versions: 1 2 3 4 5 6 7 8 9 10 11 12 13
381
FTUS44 KLZK 231120
TAFBPK
TAF
KBPK 231120Z 2312/2412 00000KT P6SM VCFG SCT250
     FM231400 20005KT P6SM SCT050 SCT250
     FM240100 16003KT P6SM SCT250=

USA.gov is the U.S. government's official web portal to all federal, state and local government web resources and services.